Time;durP1;ratioP1;P1;durP2;ratioP2;P2;SDS_P1;SDS_P2;PMS_P1;PMS_P2;Temp;Humidity;BMP_temperature;BMP_pressure;BME280_temperature;BME280_humidity;BME280_pressure;Samples;Min_cycle;Max_cycle;Signal;HPM_P1;HPM_P2
2022/07/28 00:02:14;;;;;;;5.80;1.52;;;;;;;15.18;86.00;101948.38;5054235;28;20032;-50
2022/07/28 00:04:39;;;;;;;4.13;1.70;;;;;;;15.17;86.72;101944.00;5053747;28;20028;-47
2022/07/28 00:07:05;;;;;;;4.78;1.70;;;;;;;15.16;86.32;101939.63;5054354;28;20518;-49
2022/07/28 00:09:30;;;;;;;5.05;1.77;;;;;;;15.11;86.47;101950.06;5053546;28;20035;-49
2022/07/28 00:11:55;;;;;;;8.23;1.65;;;;;;;15.05;86.08;101943.50;5053503;28;20572;-50
2022/07/28 00:14:21;;;;;;;6.07;1.83;;;;;;;15.02;86.44;101938.44;5052196;28;20024;-48
2022/07/28 00:16:47;;;;;;;6.70;1.90;;;;;;;15.00;86.48;101935.03;5054637;28;20391;-49
2022/07/28 00:19:12;;;;;;;7.30;1.92;;;;;;;14.98;86.73;101933.53;5053365;28;20032;-49
2022/07/28 00:21:38;;;;;;;8.23;1.90;;;;;;;14.94;86.89;101934.88;5054688;28;20090;-50
2022/07/28 00:24:03;;;;;;;10.00;1.83;;;;;;;14.88;86.79;101931.84;5051819;28;20056;-49
2022/07/28 00:26:28;;;;;;;10.02;1.90;;;;;;;14.82;86.66;101939.72;5053309;28;20016;-50
2022/07/28 00:28:54;;;;;;;6.90;1.73;;;;;;;14.79;87.31;101937.34;5052608;28;20070;-51
2022/07/28 00:31:19;;;;;;;11.95;1.90;;;;;;;14.77;87.90;101944.72;5048288;28;20032;-50
2022/07/28 00:33:44;;;;;;;11.55;1.60;;;;;;;14.77;88.75;101942.03;5057430;28;20463;-49
2022/07/28 00:36:09;;;;;;;8.55;1.95;;;;;;;14.74;87.72;101938.66;5055697;28;20146;-47
2022/07/28 00:38:36;;;;;;;8.52;2.45;;;;;;;14.74;88.00;101935.97;5057551;28;20058;-51
2022/07/28 00:41:10;;;;;;;4.95;1.83;;;;;;;14.71;87.61;101938.13;5056316;28;20026;-49
2022/07/28 00:43:40;;;;;;;7.07;2.00;;;;;;;14.65;88.30;101933.41;5056212;28;20191;-51
2022/07/28 00:46:07;;;;;;;6.00;1.90;;;;;;;14.56;88.28;101932.47;5056913;28;20115;-49
2022/07/28 00:48:33;;;;;;;11.43;1.95;;;;;;;14.56;88.91;101935.16;5057469;28;20043;-48
2022/07/28 00:50:58;;;;;;;10.63;2.55;;;;;;;14.51;89.36;101932.97;5056238;28;20016;-50
2022/07/28 00:53:23;;;;;;;8.07;1.75;;;;;;;14.48;89.19;101929.78;5057028;28;20709;-51
2022/07/28 00:55:48;;;;;;;9.90;2.17;;;;;;;14.45;89.35;101920.16;5055570;28;20522;-51
2022/07/28 00:58:14;;;;;;;7.80;2.00;;;;;;;14.40;89.42;101914.44;5056332;28;20513;-51
2022/07/28 01:00:40;;;;;;;6.03;1.67;;;;;;;14.43;90.25;101910.59;5049683;28;20036;-49
2022/07/28 01:03:05;;;;;;;10.32;1.92;;;;;;;14.34;89.87;101910.56;5055443;28;20024;-52
2022/07/28 01:06:03;;;;;;;6.72;1.73;;;;;;;14.39;89.09;101911.91;5057040;28;20028;-50
2022/07/28 01:08:44;;;;;;;5.93;1.90;;;;;;;14.34;90.03;101907.00;5048748;28;20098;-49
2022/07/28 01:11:28;;;;;;;6.70;2.17;;;;;;;14.27;89.49;101906.78;5055969;28;20154;-50
2022/07/28 01:14:07;;;;;;;9.85;2.03;;;;;;;14.22;90.67;101908.28;5054837;28;20028;-50
2022/07/28 01:16:37;;;;;;;8.50;2.00;;;;;;;14.17;90.83;101912.31;5056124;28;20107;-49
2022/07/28 01:19:35;;;;;;;5.20;2.17;;;;;;;14.19;90.24;101906.78;5056774;28;20020;-50
2022/07/28 01:22:03;;;;;;;9.65;1.90;;;;;;;14.11;91.28;101910.25;5056601;28;20505;-51
2022/07/28 01:24:34;;;;;;;10.50;1.95;;;;;;;14.12;92.16;101903.88;5054474;28;20021;-51
2022/07/28 01:27:13;;;;;;;7.88;1.98;;;;;;;14.12;91.11;101893.13;5055783;28;20106;-49
2022/07/28 01:30:03;;;;;;;6.57;2.10;;;;;;;14.07;91.13;101895.44;5053870;28;20056;-50
2022/07/28 01:32:35;;;;;;;4.80;2.25;;;;;;;14.02;91.45;101903.13;5056264;28;20615;-50
2022/07/28 01:35:18;;;;;;;7.30;2.20;;;;;;;14.05;91.47;101901.97;5056013;28;20197;-50
2022/07/28 01:37:48;;;;;;;10.82;2.35;;;;;;;13.96;92.34;101895.69;5055701;28;20025;-50
2022/07/28 01:40:18;;;;;;;10.55;2.05;;;;;;;13.96;91.89;101909.13;5055440;28;20035;-50
2022/07/28 01:42:47;;;;;;;7.90;2.22;;;;;;;13.94;92.51;101895.03;5055887;28;20016;-51
2022/07/28 01:45:14;;;;;;;6.70;1.95;;;;;;;13.96;92.49;101893.00;5054171;28;20491;-51
2022/07/28 01:47:43;;;;;;;11.02;2.55;;;;;;;13.93;92.21;101888.81;5056058;28;20455;-51
2022/07/28 01:50:10;;;;;;;7.57;2.25;;;;;;;13.92;92.56;101894.34;5048604;28;20496;-48
2022/07/28 01:52:39;;;;;;;12.35;2.60;;;;;;;13.86;92.39;101890.44;5052472;28;20507;-51
2022/07/28 01:55:06;;;;;;;13.15;2.40;;;;;;;13.86;92.38;101895.78;5055535;28;20009;-51
2022/07/28 01:57:33;;;;;;;8.77;2.10;;;;;;;13.85;92.19;101895.94;5055499;28;20406;-51
2022/07/28 01:59:59;;;;;;;6.20;2.30;;;;;;;13.87;92.39;101894.81;5054576;28;20040;-52
2022/07/28 02:02:28;;;;;;;5.20;2.33;;;;;;;13.84;92.05;101891.59;5055739;28;20048;-51
2022/07/28 02:04:55;;;;;;;6.82;2.20;;;;;;;13.85;92.24;101885.22;5052784;28;20570;-51
2022/07/28 02:07:22;;;;;;;5.32;2.30;;;;;;;13.85;92.13;101887.91;5055772;28;20852;-51
2022/07/28 02:09:49;;;;;;;10.10;2.22;;;;;;;13.80;92.74;101878.47;5055298;28;20020;-52
2022/07/28 02:12:17;;;;;;;7.88;2.17;;;;;;;13.81;92.54;101876.63;5055097;28;20078;-50
2022/07/28 02:14:46;;;;;;;5.50;2.22;;;;;;;13.79;92.50;101878.63;5052441;28;20100;-48
2022/07/28 02:17:20;;;;;;;7.88;2.28;;;;;;;13.74;91.92;101871.03;5055240;28;20036;-49
2022/07/28 02:19:47;;;;;;;6.50;2.30;;;;;;;13.73;92.47;101868.50;5055897;28;20040;-50
2022/07/28 02:22:13;;;;;;;10.02;2.50;;;;;;;13.69;93.14;101870.66;5055267;28;20533;-49
2022/07/28 02:24:40;;;;;;;6.93;2.20;;;;;;;13.69;92.49;101876.03;5055489;28;20078;-49
2022/07/28 02:27:35;;;;;;;10.63;2.38;;;;;;;13.75;92.47;101875.41;5054334;28;20323;-49
2022/07/28 02:30:08;;;;;;;10.10;2.25;;;;;;;13.73;92.55;101880.13;5046448;28;20492;-51
2022/07/28 02:32:49;;;;;;;5.63;1.88;;;;;;;13.72;91.84;101874.91;5052212;28;20024;-50
2022/07/28 02:35:39;;;;;;;3.28;2.00;;;;;;;13.73;91.87;101874.75;5054999;28;20032;-50
2022/07/28 02:38:12;;;;;;;12.85;2.38;;;;;;;13.73;92.44;101876.56;5055632;28;20025;-48
2022/07/28 02:40:41;;;;;;;12.55;2.38;;;;;;;13.65;92.10;101869.31;5054232;28;20057;-51
2022/07/28 02:43:11;;;;;;;6.43;2.10;;;;;;;13.59;92.40;101875.28;5053307;28;20031;-49
2022/07/28 02:45:40;;;;;;;5.75;2.00;;;;;;;13.59;92.22;101864.56;5053298;28;20021;-48
2022/07/28 02:48:09;;;;;;;6.28;2.08;;;;;;;13.60;91.41;101871.63;5054767;28;20024;-49
2022/07/28 02:50:34;;;;;;;8.50;2.75;;;;;;;13.54;91.77;101873.09;5054449;28;20472;-50
2022/07/28 02:53:02;;;;;;;7.70;2.20;;;;;;;13.55;91.92;101872.06;5055119;28;20024;-51
2022/07/28 02:55:29;;;;;;;3.95;1.98;;;;;;;13.51;92.28;101877.91;5053572;28;20029;-51
2022/07/28 02:57:56;;;;;;;9.05;2.05;;;;;;;13.49;91.82;101869.16;5054115;28;20033;-51
2022/07/28 03:00:23;;;;;;;7.07;2.17;;;;;;;13.47;91.56;101873.84;5052931;28;20036;-51
2022/07/28 03:02:49;;;;;;;4.88;2.10;;;;;;;13.46;91.58;101874.84;5054102;28;20029;-50
2022/07/28 03:05:15;;;;;;;5.30;1.90;;;;;;;13.43;91.96;101873.31;5054074;28;20029;-49
2022/07/28 03:07:41;;;;;;;6.15;1.85;;;;;;;13.42;91.62;101871.63;5055385;28;20079;-48
2022/07/28 03:10:06;;;;;;;9.27;2.42;;;;;;;13.47;91.51;101868.50;5054088;28;20481;-50
2022/07/28 03:12:32;;;;;;;6.97;1.92;;;;;;;13.49;95.64;101864.63;5054770;28;20035;-52
2022/07/28 03:14:57;;;;;;;12.23;2.30;;;;;;;13.48;94.47;101864.81;5052102;28;20043;-50
2022/07/28 03:17:22;;;;;;;6.60;2.30;;;;;;;13.47;95.54;101871.16;5054919;28;20413;-52
2022/07/28 03:19:48;;;;;;;13.05;2.80;;;;;;;13.43;96.39;101876.00;5043868;28;20120;-50
2022/07/28 03:22:13;;;;;;;13.65;2.53;;;;;;;13.41;97.26;101872.66;5053518;28;20107;-49
2022/07/28 03:24:49;;;;;;;21.48;2.63;;;;;;;13.41;97.68;101873.47;5054830;28;20501;-50
2022/07/28 03:27:32;;;;;;;7.05;2.20;;;;;;;13.37;94.61;101871.25;5054097;28;20040;-50
2022/07/28 03:30:03;;;;;;;14.40;2.60;;;;;;;13.34;98.90;101880.47;5052985;28;20466;-50
2022/07/28 03:32:31;;;;;;;10.80;2.30;;;;;;;13.31;97.65;101890.63;5054978;28;20016;-49
2022/07/28 03:34:57;;;;;;;14.95;2.70;;;;;;;13.27;99.71;101884.69;5054285;28;20017;-50
2022/07/28 03:37:38;;;;;;;7.28;2.60;;;;;;;13.17;97.70;101881.25;5054343;28;20597;-49
2022/07/28 03:40:08;;;;;;;12.57;2.20;;;;;;;13.18;99.16;101874.91;5053735;28;20020;-49
2022/07/28 03:42:35;;;;;;;8.73;2.38;;;;;;;13.18;96.27;101880.28;5053697;28;20210;-46
2022/07/28 03:45:01;;;;;;;9.32;2.22;;;;;;;13.06;95.25;101871.59;5053386;28;20032;-48
2022/07/28 03:47:26;;;;;;;8.68;2.35;;;;;;;13.06;95.01;101875.13;5052300;28;20099;-46
2022/07/28 03:49:51;;;;;;;11.38;2.55;;;;;;;13.05;95.53;101881.50;5049371;28;20139;-49
2022/07/28 03:52:17;;;;;;;5.97;2.47;;;;;;;12.98;95.21;101876.88;5048064;28;20048;-47
2022/07/28 03:54:43;;;;;;;8.07;2.50;;;;;;;12.98;95.94;101885.78;5053512;28;20050;-47
2022/07/28 03:57:09;;;;;;;9.00;2.60;;;;;;;12.97;99.24;101889.44;5053439;28;20051;-47
2022/07/28 03:59:34;;;;;;;4.10;2.35;;;;;;;12.91;98.08;101891.88;5050659;28;20499;-47
2022/07/28 04:01:59;;;;;;;8.75;2.55;;;;;;;12.87;97.96;101884.16;5055496;28;20459;-45
2022/07/28 04:04:24;;;;;;;10.43;2.95;;;;;;;12.82;96.67;101883.75;5055481;28;20024;-47
2022/07/28 04:06:50;;;;;;;7.38;2.95;;;;;;;12.78;96.91;101876.16;5057050;28;20191;-49
2022/07/28 04:09:15;;;;;;;12.57;2.88;;;;;;;12.77;98.90;101874.47;5055754;28;20414;-49
2022/07/28 04:11:42;;;;;;;11.07;3.13;;;;;;;12.74;97.82;101882.81;5056555;28;20090;-47
2022/07/28 04:14:07;;;;;;;7.75;3.15;;;;;;;12.75;96.87;101876.47;5056151;28;20088;-49
2022/07/28 04:16:32;;;;;;;14.77;3.63;;;;;;;12.78;96.63;101876.16;5058118;28;20572;-48
2022/07/28 04:18:58;;;;;;;10.82;3.55;;;;;;;12.78;100.00;101878.84;5057797;28;20032;-49
2022/07/28 04:21:24;;;;;;;12.25;3.75;;;;;;;12.72;98.61;101869.56;5057363;28;20328;-47
2022/07/28 04:23:50;;;;;;;13.57;4.35;;;;;;;12.71;97.86;101877.75;5056590;28;20081;-46
2022/07/28 04:26:16;;;;;;;18.65;4.10;;;;;;;12.75;98.51;101877.31;5056175;28;20370;-48
2022/07/28 04:28:42;;;;;;;13.18;4.57;;;;;;;12.72;98.32;101876.78;5055745;28;20380;-51
2022/07/28 04:31:07;;;;;;;13.07;4.65;;;;;;;12.75;98.28;101873.78;5048299;28;20031;-48
2022/07/28 04:33:32;;;;;;;18.65;4.30;;;;;;;12.76;98.27;101872.78;5056409;28;20468;-46
2022/07/28 04:36:00;;;;;;;16.27;4.82;;;;;;;12.76;98.30;101876.28;5057147;28;20398;-46
2022/07/28 04:38:25;;;;;;;11.10;4.30;;;;;;;12.80;98.06;101880.38;5057210;28;20099;-49
2022/07/28 04:40:51;;;;;;;11.95;4.38;;;;;;;12.84;98.54;101872.88;5055667;28;20103;-46
2022/07/28 04:43:16;;;;;;;16.55;4.30;;;;;;;12.88;99.21;101877.78;5057023;28;20130;-49
2022/07/28 04:45:44;;;;;;;12.95;4.35;;;;;;;12.87;98.52;101880.63;5055668;28;20315;-49
2022/07/28 04:48:11;;;;;;;16.45;3.70;;;;;;;12.89;99.06;101870.59;5057191;28;20447;-51
2022/07/28 04:50:36;;;;;;;11.00;4.00;;;;;;;12.85;98.25;101867.38;5056828;28;20048;-48
2022/07/28 04:53:02;;;;;;;8.13;3.60;;;;;;;12.85;99.14;101866.53;5058090;28;20067;-47
2022/07/28 04:55:27;;;;;;;13.15;4.30;;;;;;;12.85;97.71;101872.72;5055627;28;20872;-49
2022/07/28 04:57:52;;;;;;;8.95;3.55;;;;;;;12.90;98.92;101866.94;5056565;28;20463;-49
2022/07/28 05:00:18;;;;;;;16.83;3.50;;;;;;;12.96;98.44;101860.94;5055266;28;20107;-49
2022/07/28 05:02:44;;;;;;;8.18;3.33;;;;;;;12.97;99.64;101869.84;5056920;28;20020;-51
2022/07/28 05:05:10;;;;;;;15.82;3.92;;;;;;;12.99;99.44;101863.31;5056602;28;20418;-49
2022/07/28 05:07:36;;;;;;;13.57;3.60;;;;;;;12.99;99.01;101867.84;5056890;28;20024;-47
2022/07/28 05:10:03;;;;;;;7.70;3.30;;;;;;;12.96;98.99;101874.34;5057246;28;20024;-49
2022/07/28 05:12:29;;;;;;;14.82;3.30;;;;;;;12.98;99.30;101879.56;5056324;28;20528;-47
2022/07/28 05:14:54;;;;;;;9.20;2.88;;;;;;;13.00;97.83;101881.09;5053676;28;20052;-48
2022/07/28 05:17:20;;;;;;;12.23;3.58;;;;;;;13.00;98.54;101870.38;5056120;28;20121;-44
2022/07/28 05:19:45;;;;;;;16.73;3.85;;;;;;;13.02;99.03;101876.44;5056933;28;20067;-50
2022/07/28 05:22:10;;;;;;;12.60;3.30;;;;;;;13.08;99.55;101874.97;5056567;28;20518;-50
2022/07/28 05:24:35;;;;;;;16.95;3.33;;;;;;;13.09;99.28;101878.50;5056075;28;20017;-47
2022/07/28 05:27:01;;;;;;;10.35;2.90;;;;;;;13.13;99.54;101878.03;5056750;28;20025;-47
2022/07/28 05:29:26;;;;;;;8.55;3.00;;;;;;;13.14;98.76;101877.06;5054600;28;20063;-49
2022/07/28 05:31:52;;;;;;;7.28;2.90;;;;;;;13.16;99.12;101880.41;5056952;28;20024;-48
2022/07/28 05:34:17;;;;;;;8.93;2.95;;;;;;;13.25;100.00;101881.34;5055147;28;20016;-48
2022/07/28 05:36:42;;;;;;;9.30;3.10;;;;;;;13.30;99.27;101878.19;5056065;28;20051;-46
2022/07/28 05:39:07;;;;;;;11.48;2.85;;;;;;;13.37;99.14;101871.25;5056176;28;20021;-49
2022/07/28 05:41:33;;;;;;;8.13;2.90;;;;;;;13.43;99.24;101870.63;5055633;28;20031;-45
2022/07/28 05:44:00;;;;;;;11.65;2.88;;;;;;;13.47;98.71;101874.69;5049867;28;20450;-47
2022/07/28 05:46:25;;;;;;;14.70;3.25;;;;;;;13.51;99.04;101869.84;5071669;28;20388;-48
2022/07/28 05:48:51;;;;;;;11.15;3.03;;;;;;;13.60;98.27;101874.31;5056042;28;20047;-54
2022/07/28 05:51:17;;;;;;;12.35;3.17;;;;;;;13.66;98.69;101868.28;5055461;28;20055;-46
2022/07/28 05:53:42;;;;;;;7.50;3.25;;;;;;;13.75;97.49;101871.91;5055601;28;20501;-49
2022/07/28 05:56:07;;;;;;;9.52;2.90;;;;;;;13.90;97.18;101877.53;5053315;28;20016;-51
2022/07/28 05:58:33;;;;;;;10.68;2.58;;;;;;;14.03;96.31;101886.00;5055788;28;20257;-50
2022/07/28 06:00:59;;;;;;;12.48;2.72;;;;;;;14.22;95.96;101876.88;5055511;28;20040;-48
2022/07/28 06:03:25;;;;;;;9.43;2.97;;;;;;;14.40;94.97;101882.19;5055924;28;20443;-50
2022/07/28 06:05:53;;;;;;;9.18;2.70;;;;;;;14.55;93.97;101893.19;5055672;28;20029;-48
2022/07/28 06:08:18;;;;;;;10.00;2.90;;;;;;;14.79;92.51;101892.44;5054729;28;20068;-49
2022/07/28 06:11:00;;;;;;;9.20;2.90;;;;;;;15.04;92.56;101890.69;5054771;28;20056;-49
2022/07/28 06:13:27;;;;;;;10.50;2.90;;;;;;;15.28;90.98;101889.88;5055417;28;20025;-49
2022/07/28 06:15:52;;;;;;;11.70;2.45;;;;;;;15.45;89.64;101881.81;5054411;28;20024;-49
2022/07/28 06:18:19;;;;;;;11.50;2.45;;;;;;;15.56;89.56;101877.94;5054259;28;20035;-48
2022/07/28 06:20:45;;;;;;;7.22;2.95;;;;;;;15.60;88.06;101885.50;5055135;28;20016;-46
2022/07/28 06:23:11;;;;;;;9.30;2.20;;;;;;;15.58;87.79;101882.16;5055113;28;20555;-48
2022/07/28 06:25:36;;;;;;;9.77;2.05;;;;;;;15.57;86.20;101883.16;5054295;28;20108;-47
2022/07/28 06:28:02;;;;;;;11.27;2.10;;;;;;;15.60;86.46;101882.00;5054767;28;20029;-46
2022/07/28 06:30:29;;;;;;;10.05;1.90;;;;;;;15.66;87.08;101879.47;5044358;28;20032;-46
2022/07/28 06:32:55;;;;;;;8.40;1.85;;;;;;;15.65;85.66;101876.94;5055247;28;20020;-47
2022/07/28 06:35:21;;;;;;;6.55;2.00;;;;;;;15.65;86.52;101882.31;5053125;28;20150;-46
2022/07/28 06:37:48;;;;;;;11.13;1.80;;;;;;;15.67;85.12;101881.13;5053396;28;20029;-47
2022/07/28 06:40:14;;;;;;;7.32;1.80;;;;;;;15.72;84.97;101882.47;5054107;28;20137;-45
2022/07/28 06:42:40;;;;;;;8.23;2.20;;;;;;;15.73;85.00;101876.06;5055367;28;20226;-47
2022/07/28 06:45:07;;;;;;;8.20;1.83;;;;;;;15.76;84.77;101875.75;5053354;28;20139;-47
2022/07/28 06:47:33;;;;;;;7.70;1.85;;;;;;;15.83;83.65;101879.47;5055541;28;20103;-49
2022/07/28 06:49:58;;;;;;;9.15;1.90;;;;;;;15.91;83.64;101876.75;5055006;28;20604;-48
2022/07/28 06:52:24;;;;;;;7.57;2.00;;;;;;;15.96;82.41;101882.47;5055068;28;20642;-47
2022/07/28 06:54:51;;;;;;;10.60;1.92;;;;;;;16.09;83.67;101881.09;5052880;28;20194;-48
2022/07/28 06:57:18;;;;;;;6.95;1.83;;;;;;;16.23;83.29;101878.53;5055528;28;20414;-48
2022/07/28 06:59:43;;;;;;;8.52;1.83;;;;;;;16.28;81.78;101880.72;5053168;28;20040;-48
2022/07/28 07:02:09;;;;;;;10.25;1.90;;;;;;;16.33;82.61;101885.59;5054929;28;20024;-49
2022/07/28 07:04:34;;;;;;;6.05;1.70;;;;;;;16.37;82.43;101879.66;5054461;28;20050;-48
2022/07/28 07:06:59;;;;;;;9.52;1.60;;;;;;;16.45;81.37;101886.88;5055457;28;20056;-47
2022/07/28 07:09:25;;;;;;;10.02;1.80;;;;;;;16.50;80.68;101872.88;5054473;28;20028;-47
2022/07/28 07:11:50;;;;;;;5.93;1.63;;;;;;;16.60;80.49;101878.91;5052852;28;20031;-49
2022/07/28 07:14:15;;;;;;;11.13;2.05;;;;;;;16.74;80.21;101871.94;5053189;28;20051;-48
2022/07/28 07:16:41;;;;;;;10.35;1.70;;;;;;;16.82;78.94;101868.31;5054695;28;20024;-49
2022/07/28 07:19:06;;;;;;;6.93;1.67;;;;;;;16.92;79.58;101886.03;5048235;28;20063;-47
2022/07/28 07:21:31;;;;;;;6.68;1.73;;;;;;;16.98;78.01;101879.06;5048710;28;20106;-47
2022/07/28 07:23:57;;;;;;;7.63;1.48;;;;;;;17.19;77.67;101882.97;5053945;28;20347;-48
2022/07/28 07:26:23;;;;;;;9.27;1.50;;;;;;;17.28;76.18;101885.44;5054047;28;20429;-47
2022/07/28 07:28:48;;;;;;;7.88;1.40;;;;;;;17.32;76.51;101881.34;5052637;28;20222;-50
2022/07/28 07:31:13;;;;;;;10.02;1.60;;;;;;;17.33;75.97;101887.59;5054552;28;20544;-50
2022/07/28 07:33:39;;;;;;;6.75;1.60;;;;;;;17.55;77.21;101879.66;5054995;28;20024;-48
2022/07/28 07:36:04;;;;;;;10.77;1.52;;;;;;;17.73;75.90;101877.47;5054482;28;20024;-48
2022/07/28 07:38:29;;;;;;;9.18;1.70;;;;;;;17.84;76.14;101881.59;5056189;28;20471;-47
2022/07/28 07:40:55;;;;;;;6.38;1.60;;;;;;;17.87;73.76;101874.00;5057668;28;20431;-48
2022/07/28 07:43:20;;;;;;;9.15;1.88;;;;;;;17.92;72.53;101878.00;5057138;28;20203;-51
2022/07/28 07:45:46;;;;;;;7.45;1.60;;;;;;;18.03;72.35;101872.16;5057017;28;20020;-48
2022/07/28 07:48:11;;;;;;;8.90;1.58;;;;;;;18.17;72.05;101876.72;5057259;28;20278;-47
2022/07/28 07:50:37;;;;;;;6.43;1.40;;;;;;;18.10;71.12;101873.06;5048683;28;20029;-47
2022/07/28 07:53:03;;;;;;;8.23;1.70;;;;;;;18.06;72.38;101869.91;5044949;28;20025;-49
2022/07/28 07:55:28;;;;;;;8.68;1.48;;;;;;;18.00;70.95;101867.09;5056072;28;20493;-49
2022/07/28 07:57:53;;;;;;;7.28;1.50;;;;;;;18.10;73.15;101866.84;5058292;28;20215;-50
2022/07/28 08:00:19;;;;;;;7.88;1.60;;;;;;;18.09;71.28;101860.56;5056202;28;20037;-50
2022/07/28 08:02:44;;;;;;;6.28;1.40;;;;;;;18.18;72.43;101866.75;5058825;28;20101;-46
2022/07/28 08:05:09;;;;;;;11.68;1.42;;;;;;;18.13;71.44;101859.19;5056207;28;20032;-48
2022/07/28 08:07:35;;;;;;;6.53;1.40;;;;;;;18.11;70.71;101860.38;5058372;28;20024;-50
2022/07/28 08:10:02;;;;;;;5.80;1.75;;;;;;;18.06;70.27;101869.06;5057074;28;20025;-50
2022/07/28 08:12:27;;;;;;;9.88;1.85;;;;;;;18.04;70.84;101869.25;5057888;28;20024;-49
2022/07/28 08:14:53;;;;;;;9.80;1.60;;;;;;;18.23;69.60;101861.63;5056441;28;20032;-50
2022/07/28 08:17:19;;;;;;;8.80;1.60;;;;;;;18.44;68.69;101864.38;5057340;28;20032;-50
2022/07/28 08:19:44;;;;;;;6.60;1.35;;;;;;;18.62;70.45;101864.00;5058479;28;20111;-46
2022/07/28 08:22:10;;;;;;;13.60;1.60;;;;;;;18.77;68.24;101863.09;5056577;28;20107;-49
2022/07/28 08:24:35;;;;;;;8.25;1.50;;;;;;;18.93;68.01;101871.03;5056754;28;20123;-49
2022/07/28 08:27:01;;;;;;;7.80;1.52;;;;;;;19.07;65.55;101863.06;5058284;28;20056;-51
2022/07/28 08:29:26;;;;;;;9.63;1.70;;;;;;;19.20;67.21;101861.31;5051342;28;20565;-51
2022/07/28 08:31:52;;;;;;;13.10;1.98;;;;;;;19.32;65.58;101861.63;5052052;28;20021;-49
2022/07/28 08:34:17;;;;;;;6.53;1.45;;;;;;;19.47;64.66;101860.75;5056842;28;20078;-51
2022/07/28 08:36:42;;;;;;;11.43;1.38;;;;;;;19.63;64.38;101859.59;5058037;28;20025;-49
2022/07/28 08:39:07;;;;;;;11.60;1.58;;;;;;;19.84;64.14;101869.59;5056342;28;20024;-50
2022/07/28 08:41:45;;;;;;;11.98;1.40;;;;;;;19.96;63.74;101859.88;5056701;28;20027;-50
2022/07/28 08:44:14;;;;;;;4.15;1.10;;;;;;;20.02;63.26;101861.78;5055442;28;20028;-51
2022/07/28 08:46:42;;;;;;;8.13;1.42;;;;;;;20.09;62.13;101867.25;5058037;28;20393;-50
2022/07/28 08:49:08;;;;;;;5.60;1.40;;;;;;;20.09;62.96;101862.66;5055629;28;20098;-51
2022/07/28 08:51:35;;;;;;;4.45;1.20;;;;;;;20.18;60.82;101870.63;5056848;28;20028;-50
2022/07/28 08:54:02;;;;;;;8.90;1.48;;;;;;;20.32;67.56;101858.84;5056927;28;20028;-52
2022/07/28 08:56:27;;;;;;;8.98;1.58;;;;;;;20.41;62.25;101859.50;5056145;28;20024;-50
2022/07/28 08:58:54;;;;;;;13.05;1.63;;;;;;;20.46;57.48;101854.28;5055626;28;20450;-49
2022/07/28 09:01:21;;;;;;;11.10;1.45;;;;;;;20.48;56.38;101854.94;5056867;28;20297;-50
2022/07/28 09:03:48;;;;;;;5.80;1.40;;;;;;;20.53;59.42;101847.00;5057047;28;20113;-50
2022/07/28 09:06:13;;;;;;;5.70;1.33;;;;;;;20.62;57.98;101844.94;5055594;28;20108;-50
2022/07/28 09:08:39;;;;;;;7.45;1.30;;;;;;;20.78;56.82;101852.78;5055236;28;20331;-46
2022/07/28 09:11:06;;;;;;;4.75;1.20;;;;;;;20.93;56.94;101849.91;5056044;28;20033;-50
2022/07/28 09:13:33;;;;;;;5.78;1.15;;;;;;;20.92;54.64;101847.38;5056492;28;20129;-51
2022/07/28 09:15:58;;;;;;;6.20;1.42;;;;;;;20.97;54.96;101853.84;5056727;28;20013;-51
2022/07/28 09:18:24;;;;;;;5.13;1.52;;;;;;;21.05;54.44;101844.69;5056436;28;20245;-51
2022/07/28 09:20:49;;;;;;;8.27;1.13;;;;;;;20.97;53.80;101844.88;5056951;28;20475;-49
2022/07/28 09:23:14;;;;;;;5.80;1.20;;;;;;;21.20;56.05;101842.63;5056826;28;20078;-50
2022/07/28 09:25:40;;;;;;;4.88;1.23;;;;;;;21.28;55.27;101838.03;5054706;28;20233;-50
2022/07/28 09:28:07;;;;;;;5.32;1.30;;;;;;;21.38;53.95;101839.28;5056394;28;20119;-51
2022/07/28 09:30:36;;;;;;;5.90;1.55;;;;;;;21.38;54.37;101838.44;5055341;28;20028;-48
2022/07/28 09:33:20;;;;;;;6.95;1.27;;;;;;;21.64;56.41;101825.91;5057356;28;20020;-51
2022/07/28 09:35:50;;;;;;;8.48;1.75;;;;;;;21.69;53.67;101824.25;5056059;28;20028;-52
2022/07/28 09:38:18;;;;;;;9.63;1.52;;;;;;;21.80;55.00;101828.19;5055615;28;20086;-50
2022/07/28 09:40:58;;;;;;;8.15;1.27;;;;;;;21.93;53.17;101822.72;5055697;28;20025;-50
2022/07/28 09:43:51;;;;;;;5.72;1.40;;;;;;;22.13;54.53;101811.81;5054976;28;20376;-50
2022/07/28 09:46:19;;;;;;;6.32;1.50;;;;;;;22.15;51.38;101801.53;5039126;28;20548;-52
2022/07/28 09:48:56;;;;;;;5.10;1.35;;;;;;;22.22;53.58;101801.50;5056051;28;20275;-51
2022/07/28 09:51:25;;;;;;;6.72;1.23;;;;;;;22.24;53.79;101799.41;5056372;28;20024;-48
2022/07/28 09:53:51;;;;;;;6.90;1.30;;;;;;;22.18;50.00;101794.81;5055724;28;20025;-50
2022/07/28 09:56:17;;;;;;;5.28;1.42;;;;;;;22.17;49.42;101793.16;5054869;28;20032;-50
2022/07/28 09:58:54;;;;;;;5.78;1.38;;;;;;;22.24;51.26;101795.84;5052428;28;20048;-52
2022/07/28 10:01:20;;;;;;;6.68;1.73;;;;;;;22.20;51.27;101790.00;5055448;28;20134;-51
2022/07/28 10:03:51;;;;;;;10.27;1.33;;;;;;;22.29;51.34;101785.19;5056262;28;20497;-49
2022/07/28 10:06:26;;;;;;;4.82;1.15;;;;;;;22.49;50.20;101799.53;5056032;28;20024;-49
2022/07/28 10:08:54;;;;;;;7.43;1.15;;;;;;;22.57;52.21;101800.31;5054420;28;20049;-50
2022/07/28 10:11:25;;;;;;;6.43;1.10;;;;;;;22.69;46.86;101806.75;5055377;28;20332;-51
2022/07/28 10:14:03;;;;;;;10.02;1.40;;;;;;;22.75;47.70;101807.78;5054236;28;20348;-49
2022/07/28 10:16:40;;;;;;;5.25;1.10;;;;;;;22.52;47.42;101800.97;5056258;28;20017;-49
2022/07/28 10:19:06;;;;;;;3.70;1.40;;;;;;;22.40;47.92;101797.28;5054721;28;20062;-47
2022/07/28 10:21:34;;;;;;;5.40;1.20;;;;;;;22.46;47.13;101790.97;5056019;28;20032;-50
2022/07/28 10:24:05;;;;;;;3.90;1.17;;;;;;;22.55;47.72;101792.38;5055672;28;20023;-47
2022/07/28 10:26:36;;;;;;;5.55;1.40;;;;;;;22.79;49.90;101796.19;5055227;28;20035;-49
2022/07/28 10:29:08;;;;;;;3.70;1.33;;;;;;;22.85;48.29;101789.88;5054334;28;20281;-51
2022/07/28 10:31:39;;;;;;;6.38;1.40;;;;;;;22.92;48.55;101787.13;5045976;28;20071;-49
2022/07/28 10:34:08;;;;;;;4.80;1.30;;;;;;;23.02;47.73;101784.72;5053432;28;20016;-50
2022/07/28 10:36:34;;;;;;;5.40;1.10;;;;;;;23.04;46.94;101779.91;5055116;28;20032;-51
2022/07/28 10:39:11;;;;;;;5.38;1.20;;;;;;;23.16;48.71;101790.94;5055739;28;20056;-49
2022/07/28 10:41:39;;;;;;;4.68;1.40;;;;;;;23.09;44.92;101779.28;5055527;28;20035;-49
2022/07/28 10:44:06;;;;;;;6.65;1.88;;;;;;;23.25;48.36;101780.59;5052586;28;20024;-48
2022/07/28 10:46:33;;;;;;;4.72;1.60;;;;;;;23.51;48.61;101776.81;5056127;28;20104;-49
2022/07/28 10:49:00;;;;;;;6.22;1.30;;;;;;;23.67;42.37;101783.56;5054915;28;20099;-49
2022/07/28 10:51:26;;;;;;;4.55;1.20;;;;;;;23.65;41.72;101785.69;5055503;28;20115;-50
2022/07/28 10:53:59;;;;;;;6.03;1.48;;;;;;;23.67;42.31;101775.38;5054479;28;20024;-49
2022/07/28 10:56:49;;;;;;;6.88;1.30;;;;;;;23.74;43.25;101775.31;5053371;28;20028;-47
2022/07/28 10:59:27;;;;;;;6.88;1.42;;;;;;;23.83;43.74;101774.81;5052259;28;20036;-49
2022/07/28 11:01:53;;;;;;;4.78;1.02;;;;;;;23.87;40.20;101764.28;5055136;28;20067;-50
2022/07/28 11:04:39;;;;;;;8.40;1.40;;;;;;;24.04;43.69;101772.69;5054123;28;20102;-49
2022/07/28 11:07:13;;;;;;;9.27;1.40;;;;;;;24.01;42.62;101771.22;5055124;28;20634;-50
2022/07/28 11:09:39;;;;;;;5.80;1.27;;;;;;;24.05;43.12;101776.22;5053642;28;20534;-52
2022/07/28 11:12:05;;;;;;;6.55;1.35;;;;;;;24.14;43.48;101770.25;5054903;28;20095;-52
2022/07/28 11:14:35;;;;;;;4.75;1.13;;;;;;;24.28;44.78;101765.44;5052126;28;20107;-50
2022/07/28 11:17:00;;;;;;;6.95;1.48;;;;;;;24.39;40.76;101767.41;5053885;28;20013;-50
2022/07/28 11:19:27;;;;;;;4.70;1.53;;;;;;;24.52;41.27;101769.09;5054488;28;20032;-51
2022/07/28 11:22:18;;;;;;;6.75;1.35;;;;;;;24.65;41.92;101764.56;5055035;28;20427;-52
2022/07/28 11:24:55;;;;;;;5.18;1.20;;;;;;;24.70;40.05;101765.50;5053749;28;20055;-51
2022/07/28 11:27:38;;;;;;;4.40;1.30;;;;;;;24.64;40.76;101757.41;5054476;28;20024;-51